Global Triumph — V7DU5 — position and weather

sailwx.info

Track history (hours):
 
Tides and Currents Weather Stations Pressure Air Temp Water Temp Dewpoint Dewpoint Depression Visibility Wind Speed Wind Dir Waves Ship Positions

Global Triumph

Last reported at 2016-May-30 01:13 UTC. Time now 2016-Jun-01 01:45 UTC.
Position N 02°01' E 102°12'.

Length 225 m; draft 6.9 m.

Type: Cargo ship. MMSI: 538001709.

Date/timePositionNaut miles runAvg speedWind from/ knotsBaromVisibWave heightAir tempDewpointWater temp
2016-May-30 01:13N 02°01' E 102°12'1116.8
2016-May-30 00:33N 01°54' E 102°21'1716.9
2016-May-29 23:33N 01°47' E 102°36'6415.0
2016-May-29 19:18N 01°13' E 103°30'1115.1
2016-May-29 18:33N 01°10' E 103°41'8 7.6
2016-May-29 17:33N 01°13' E 103°48'2 1.7
2016-May-29 16:28N 01°15' E 103°48'0 0.0
2016-May-29 15:28N 01°15' E 103°48'0 0.0
2016-May-29 14:28N 01°15' E 103°48'0 0.0
2016-May-29 13:31N 01°15' E 103°48'0 0.0
2016-May-29 12:28N 01°15' E 103°48'0 0.0
2016-May-29 11:31N 01°15' E 103°48'0 0.0
2016-May-29 10:28N 01°15' E 103°48'0 0.0
2016-May-29 09:25N 01°15' E 103°48'0 0.0
2016-May-29 08:28N 01°15' E 103°48'0 0.0
2016-May-29 07:28N 01°15' E 103°48'0 0.0
2016-May-29 06:28N 01°15' E 103°48'0 0.0
2016-May-29 05:28N 01°15' E 103°48'0 0.1
2016-May-29 04:33N 01°15' E 103°48'3 3.2
2016-May-29 03:31N 01°17' E 103°45'0 0.0
2016-May-29 02:31N 01°17' E 103°45'0 0.0
2016-May-29 01:31N 01°17' E 103°45'0 0.0
2016-May-29 00:31N 01°17' E 103°45'0 0.0
2016-May-28 23:31N 01°17' E 103°45'0 0.0
2016-May-28 22:31N 01°17' E 103°45'0 0.0
2016-May-28 21:31N 01°17' E 103°45'0 0.0
2016-May-28 20:31N 01°17' E 103°45'0 0.0
2016-May-28 19:31N 01°17' E 103°45'0 0.0
2016-May-28 18:31N 01°17' E 103°45'0 0.0
2016-May-28 17:31N 01°17' E 103°45'0 0.0
2016-May-28 16:31N 01°17' E 103°45'1 0.9
2016-May-28 15:33N 01°16' E 103°45'6 6.3
2016-May-28 14:33N 01°13' E 103°50'1413.3
2016-May-28 13:32N 01°17' E 104°03'8 7.9
2016-May-28 12:29N 01°23' E 103°58'7 7.6
2016-May-28 11:34N 01°27' E 103°52'2 0.1
2016-May-27 22:04N 01°28' E 103°50'710.3
2016-May-27 21:24N 01°24' E 103°56'910.0
2016-May-27 20:33N 01°21' E 104°04'  
2016-May-20 15:33N 22°39' E 119°48'6515.7
2016-May-20 11:26N 23°43' E 119°55'1315.2
2016-May-20 10:33N 23°57' E 119°55'  
Track history (hours):
 
Tides and Currents Weather Stations Pressure Air Temp Water Temp Dewpoint Dewpoint Depression Visibility Wind Speed Wind Dir Waves Ship Positions

Global Triumph

Last reported at 2016-May-30 01:13 UTC. Time now 2016-Jun-01 01:45 UTC.
Position N 02°01' E 102°12'.

Length 225 m; draft 6.9 m.

Type: Cargo ship. MMSI: 538001709.

Date/timePositionNaut miles runAvg speedWind from/ knotsBaromVisibWave heightAir tempDewpointWater temp
2016-May-30 01:13N 02°01' E 102°12'1116.8
2016-May-30 00:33N 01°54' E 102°21'1716.9
2016-May-29 23:33N 01°47' E 102°36'6415.0
2016-May-29 19:18N 01°13' E 103°30'1115.1
2016-May-29 18:33N 01°10' E 103°41'8 7.6
2016-May-29 17:33N 01°13' E 103°48'2 1.7
2016-May-29 16:28N 01°15' E 103°48'0 0.0
2016-May-29 15:28N 01°15' E 103°48'0 0.0
2016-May-29 14:28N 01°15' E 103°48'0 0.0
2016-May-29 13:31N 01°15' E 103°48'0 0.0
2016-May-29 12:28N 01°15' E 103°48'0 0.0
2016-May-29 11:31N 01°15' E 103°48'0 0.0
2016-May-29 10:28N 01°15' E 103°48'0 0.0
2016-May-29 09:25N 01°15' E 103°48'0 0.0
2016-May-29 08:28N 01°15' E 103°48'0 0.0
2016-May-29 07:28N 01°15' E 103°48'0 0.0
2016-May-29 06:28N 01°15' E 103°48'0 0.0
2016-May-29 05:28N 01°15' E 103°48'0 0.1
2016-May-29 04:33N 01°15' E 103°48'3 3.2
2016-May-29 03:31N 01°17' E 103°45'0 0.0
2016-May-29 02:31N 01°17' E 103°45'0 0.0
2016-May-29 01:31N 01°17' E 103°45'0 0.0
2016-May-29 00:31N 01°17' E 103°45'0 0.0
2016-May-28 23:31N 01°17' E 103°45'0 0.0
2016-May-28 22:31N 01°17' E 103°45'0 0.0
2016-May-28 21:31N 01°17' E 103°45'0 0.0
2016-May-28 20:31N 01°17' E 103°45'0 0.0
2016-May-28 19:31N 01°17' E 103°45'0 0.0
2016-May-28 18:31N 01°17' E 103°45'0 0.0
2016-May-28 17:31N 01°17' E 103°45'0 0.0
2016-May-28 16:31N 01°17' E 103°45'1 0.9
2016-May-28 15:33N 01°16' E 103°45'6 6.3
2016-May-28 14:33N 01°13' E 103°50'1413.3
2016-May-28 13:32N 01°17' E 104°03'8 7.9
2016-May-28 12:29N 01°23' E 103°58'7 7.6
2016-May-28 11:34N 01°27' E 103°52'2 0.1
2016-May-27 22:04N 01°28' E 103°50'710.3
2016-May-27 21:24N 01°24' E 103°56'910.0
2016-May-27 20:33N 01°21' E 104°04'  
2016-May-20 15:33N 22°39' E 119°48'6515.7
2016-May-20 11:26N 23°43' E 119°55'1315.2
2016-May-20 10:33N 23°57' E 119°55'  

Dump ship's entire track history